CheckWX is a tool to help pilots better visualize weather data.  It is not intended as a substitute for an official pre-flight weather briefing.

20:24:31 UTC

ENTC METAR
Tromsø Airport
Tromsø, Norway
Current

35 mins ago

ENTC 201950Z 24011KT 9999 BKN046 OVC061 06/03 Q1013 RMK WIND 2600FT 19037KT
Observed
Apr-20 @ 19:50 UTC
Wind
  • 240° at 11 KTS
Visibility
10,000+ meters
Flight Rules
VFR
Cloud Levels
  • Broken at 4,600' AGL
  • Overcast at 6,100' AGL
Temperature
C / 43°F
Dewpoint
C / 37°F
Humidity
81%
Altimeter
29.91" Hg
Pressure
1012.92 hPa
Previous

1 hour ago

ENTC 201920Z 23015KT 9999 -RA FEW036 BKN047 OVC059 07/03 Q1013 RMK WIND 2600FT 19042G53KT
Observed
Apr-20 @ 19:20 UTC
Wind
  • 230° at 15 KTS
Visibility
10,000+ meters
Flight Rules
VFR
Conditions
Light Rain
Cloud Levels
  • Few at 3,600' AGL
  • Broken at 4,700' AGL
  • Overcast at 5,900' AGL
Temperature
C / 45°F
Dewpoint
C / 37°F
Humidity
76%
Altimeter
29.91" Hg
Pressure
1012.92 hPa
Previous

2 hours ago

ENTC 201850Z 23015KT 9999 -DZ FEW035 OVC048 07/02 Q1014 RMK WIND 2600FT 19046KT
Observed
Apr-20 @ 18:50 UTC
Wind
  • 230° at 15 KTS
Visibility
10,000+ meters
Flight Rules
VFR
Conditions
Light Drizzle
Cloud Levels
  • Few at 3,500' AGL
  • Overcast at 4,800' AGL
Temperature
C / 45°F
Dewpoint
C / 36°F
Humidity
71%
Altimeter
29.94" Hg
Pressure
1013.92 hPa